createdAt,value
2022-12-13T00:02:41.568Z,19.70
2022-12-13T00:07:35.900Z,20.33
2022-12-13T00:12:28.203Z,18.88
2022-12-13T00:17:22.289Z,20.40
2022-12-13T00:22:29.732Z,18.13
2022-12-13T00:27:24.451Z,18.67
2022-12-13T00:32:18.399Z,19.02
2022-12-13T00:37:31.908Z,19.37
2022-12-13T00:42:28.995Z,18.40
2022-12-13T00:47:30.850Z,18.90
2022-12-13T00:52:26.326Z,19.20
2022-12-13T00:57:20.747Z,18.58
2022-12-13T01:02:16.997Z,18.58
2022-12-13T01:07:10.434Z,19.35
2022-12-13T01:12:08.093Z,18.95
2022-12-13T01:17:15.622Z,19.40
2022-12-13T01:22:14.810Z,19.23
2022-12-13T01:27:12.964Z,20.20
2022-12-13T01:32:06.793Z,19.02
2022-12-13T01:36:59.527Z,18.73
2022-12-13T01:42:04.380Z,19.77
2022-12-13T01:47:00.411Z,19.52
2022-12-13T01:51:59.703Z,18.60
2022-12-13T01:57:00.659Z,19.85
2022-12-13T02:02:12.825Z,19.63
2022-12-13T02:07:34.350Z,20.70
2022-12-13T02:12:33.273Z,20.83
2022-12-13T02:17:51.273Z,20.30
2022-12-13T02:23:05.002Z,22.37
2022-12-13T02:28:34.221Z,21.67
2022-12-13T02:34:02.853Z,20.47
2022-12-13T02:39:04.553Z,20.13
2022-12-13T02:44:21.777Z,20.13
2022-12-13T02:49:19.687Z,20.25
2022-12-13T02:54:14.025Z,22.70
2022-12-13T02:59:12.529Z,22.90
2022-12-13T03:04:16.757Z,23.83
2022-12-13T03:09:31.122Z,23.00
2022-12-13T03:14:34.735Z,22.60
2022-12-13T03:19:38.441Z,23.47
2022-12-13T03:24:33.400Z,22.47
2022-12-13T03:29:32.607Z,22.90
2022-12-13T03:34:43.632Z,22.08
2022-12-13T03:39:44.595Z,23.27
2022-12-13T03:44:35.642Z,23.52
2022-12-13T03:49:35.325Z,23.88
2022-12-13T03:54:29.696Z,24.23
2022-12-13T03:59:23.565Z,25.15
2022-12-13T04:04:18.920Z,25.23
2022-12-13T04:09:12.790Z,23.42
2022-12-13T04:14:04.542Z,24.42
2022-12-13T04:18:59.676Z,24.20
2022-12-13T04:23:54.964Z,24.63
2022-12-13T04:28:52.557Z,24.60
2022-12-13T04:33:45.144Z,24.90
2022-12-13T04:38:41.266Z,23.90
2022-12-13T04:43:32.390Z,24.42
2022-12-13T04:48:30.209Z,25.20
2022-12-13T04:53:27.123Z,24.80
2022-12-13T04:58:30.913Z,25.20
2022-12-13T05:03:28.991Z,24.70
2022-12-13T05:08:20.674Z,24.70
2022-12-13T05:13:19.107Z,25.73
2022-12-13T05:18:16.100Z,25.60
2022-12-13T05:23:22.446Z,26.57
2022-12-13T05:28:27.844Z,25.88
2022-12-13T05:33:25.812Z,27.40
2022-12-13T05:38:26.140Z,25.98
2022-12-13T05:43:21.732Z,28.20
2022-12-13T05:48:26.320Z,24.50
2022-12-13T05:53:32.183Z,26.38
2022-12-13T05:58:23.744Z,25.07
2022-12-13T06:03:17.136Z,25.55
2022-12-13T06:08:24.628Z,25.53
2022-12-13T06:13:21.837Z,26.37
2022-12-13T06:18:25.651Z,26.17
2022-12-13T06:23:24.991Z,25.58
2022-12-13T06:28:21.026Z,26.63
2022-12-13T06:33:14.463Z,26.58
2022-12-13T06:38:21.993Z,26.50
2022-12-13T06:43:26.494Z,26.13
2022-12-13T06:48:20.404Z,27.42
2022-12-13T06:53:12.226Z,27.45
2022-12-13T06:58:12.873Z,26.13
2022-12-13T07:03:12.367Z,25.33
2022-12-13T07:08:10.261Z,26.60
2022-12-13T07:13:03.159Z,26.25
2022-12-13T07:17:56.706Z,26.00
2022-12-13T07:23:00.023Z,26.87
2022-12-13T07:27:53.110Z,24.75
2022-12-13T07:32:53.706Z,25.77
2022-12-13T07:37:51.947Z,25.17
2022-12-13T07:42:47.743Z,24.77
2022-12-13T07:47:44.345Z,24.67
2022-12-13T07:52:42.748Z,25.35
2022-12-13T07:57:50.616Z,25.13
2022-12-13T08:02:52.391Z,26.73
2022-12-13T08:07:46.720Z,26.95
2022-12-13T08:12:40.777Z,26.27
2022-12-13T08:17:34.164Z,27.38
2022-12-13T08:22:25.457Z,28.47
2022-12-13T08:27:16.762Z,27.70
2022-12-13T08:32:32.319Z,28.73
2022-12-13T08:37:28.136Z,28.30
2022-12-13T08:42:27.912Z,30.38
2022-12-13T08:47:26.411Z,27.90
2022-12-13T08:52:20.524Z,27.63
2022-12-13T08:57:11.530Z,28.50
2022-12-13T09:02:05.181Z,28.97
2022-12-13T09:06:58.586Z,29.77
2022-12-13T09:11:52.670Z,29.90
2022-12-13T09:16:54.775Z,31.02
2022-12-13T09:22:07.283Z,30.80
2022-12-13T09:27:27.203Z,32.78
2022-12-13T09:32:19.497Z,31.77
2022-12-13T09:37:23.075Z,32.38
2022-12-13T09:42:30.670Z,32.45
2022-12-13T09:47:52.832Z,31.10
2022-12-13T09:52:59.862Z,30.17
2022-12-13T09:57:56.502Z,21.67
2022-12-13T10:02:53.183Z,21.52
2022-12-13T10:07:52.937Z,22.42
